This is the latest recevied weather packets stored in our database for station/object OK2ZAW-23. If no packets are shown the sender has not sent any weather packets the latest 10 day(s).
| Time | Temp. | Humidity | Pressure | Rain* | Wind** | Luminosity | Snow |
|---|---|---|---|---|---|---|---|
| 1777701308 | 7.78° C | 83% | 1023 hPa | - | - | 335 W/m² | - |
| 1777700995 | 7.78° C | 84% | 1022.9 hPa | - | - | 335 W/m² | - |
| 1777700682 | 7.22° C | 84% | 1023 hPa | - | - | 335 W/m² | - |
| 1777700056 | 6.67° C | 85% | 1022.9 hPa | - | - | 335 W/m² | - |
| 1777699117 | 5.56° C | 87% | 1023 hPa | - | - | 335 W/m² | - |
| 1777698805 | 5.56° C | 87% | 1023 hPa | - | - | 335 W/m² | - |
| 1777698491 | 5° C | 87% | 1022.9 hPa | - | - | 335 W/m² | - |
| 1777697865 | 5° C | 89% | 1022.9 hPa | - | - | 335 W/m² | - |
| 1777697552 | 4.44° C | 89% | 1022.9 hPa | - | - | 335 W/m² | - |
| 1777696926 | 3.89° C | 89% | 1022.9 hPa | - | - | 335 W/m² | - |
| 1777696614 | 3.89° C | 89% | 1022.8 hPa | - | - | 335 W/m² | - |
| 1777696301 | 3.89° C | 89% | 1022.9 hPa | - | - | 335 W/m² | - |
| 1777695363 | 3.33° C | 91% | 1022.8 hPa | - | - | 335 W/m² | - |
| 1777694737 | 3.33° C | 89% | 1022.8 hPa | - | - | 335 W/m² | - |
| 1777694111 | 3.33° C | 88% | 1022.8 hPa | - | - | 335 W/m² | - |
| 1777693486 | 2.78° C | 89% | 1022.7 hPa | - | - | 335 W/m² | - |
| 1777693173 | 3.33° C | 89% | 1022.7 hPa | - | - | 335 W/m² | - |
| 1777692860 | 3.33° C | 89% | 1022.7 hPa | - | - | 335 W/m² | - |
| 1777692547 | 3.33° C | 89% | 1022.7 hPa | - | - | 335 W/m² | - |
| 1777692235 | 3.33° C | 89% | 1022.7 hPa | - | - | 335 W/m² | - |
| 1777691922 | 3.33° C | 89% | 1022.7 hPa | - | - | 335 W/m² | - |
| 1777691610 | 3.33° C | 89% | 1022.7 hPa | - | - | 335 W/m² | - |
| 1777689419 | 3.33° C | 89% | 1022.9 hPa | - | - | 335 W/m² | - |
| 1777688794 | 3.33° C | 89% | 1022.9 hPa | - | - | 335 W/m² | - |
| 1777686917 | 4.44° C | 85% | 1023 hPa | - | - | 335 W/m² | - |
* Rain since midnight (hover to see other rain measurements)
** Current wind speed in m/s (hover to see current wind gust speed)